Time;durP1;ratioP1;P1;durP2;ratioP2;P2;SDS_P1;SDS_P2;PMS_P1;PMS_P2;Temp;Humidity;BMP_temperature;BMP_pressure;BME280_temperature;BME280_humidity;BME280_pressure;Samples;Min_cycle;Max_cycle;Signal;HPM_P1;HPM_P2
2021/11/12 00:04:14;;;;;;;50.13;24.02;;;4.00;92.60;;;;;;5027143;28;20083;-71
2021/11/12 00:12:30;;;;;;;70.68;31.90;;;3.90;93.00;;;;;;5033386;28;20119;-71
2021/11/12 00:14:56;;;;;;;69.50;31.33;;;3.90;93.00;;;;;;5024852;28;20029;-71
2021/11/12 00:17:27;;;;;;;76.18;34.10;;;3.80;93.20;;;;;;5022820;28;20030;-72
2021/11/12 00:19:54;;;;;;;94.13;37.97;;;3.90;93.20;;;;;;5018164;28;20108;-71
2021/11/12 00:22:22;;;;;;;92.22;38.75;;;3.80;93.40;;;;;;5015567;28;20030;-72
2021/11/12 00:24:53;;;;;;;83.40;34.72;;;3.80;93.60;;;;;;5024065;28;20018;-71
2021/11/12 00:27:23;;;;;;;89.72;35.22;;;3.80;93.80;;;;;;5026692;28;20029;-72
2021/11/12 00:43:14;;;;;;;117.20;44.53;;;3.70;94.30;;;;;;5026606;28;20740;-73
2021/11/12 00:45:48;;;;;;;115.63;42.85;;;3.60;94.30;;;;;;5014149;28;20037;-71
2021/11/12 00:48:20;;;;;;;119.55;42.25;;;3.60;94.50;;;;;;5013895;28;20022;-71
2021/11/12 00:55:43;;;;;;;147.23;47.88;;;3.60;94.90;;;;;;5019184;28;20056;-71
2021/11/12 00:58:10;;;;;;;157.00;50.72;;;3.60;95.00;;;;;;5032731;28;20451;-70
2021/11/12 01:00:37;;;;;;;172.75;56.20;;;3.60;95.10;;;;;;5034050;28;20025;-71
2021/11/12 01:03:04;;;;;;;169.65;53.83;;;3.60;95.20;;;;;;5019840;28;20027;-71
2021/11/12 01:05:30;;;;;;;183.43;58.55;;;3.60;95.20;;;;;;5037907;28;20482;-71
2021/11/12 01:08:00;;;;;;;192.32;57.83;;;3.60;95.10;;;;;;5038013;28;20383;-71
2021/11/12 01:10:27;;;;;;;168.73;56.45;;;3.60;95.10;;;;;;5026808;28;20048;-71
2021/11/12 01:12:53;;;;;;;125.45;46.38;;;3.60;95.20;;;;;;5036714;28;20049;-71
2021/11/12 01:15:20;;;;;;;114.43;43.58;;;3.60;95.20;;;;;;5036380;28;20032;-71
2021/11/12 01:17:46;;;;;;;81.53;37.10;;;3.60;95.00;;;;;;5032467;28;20021;-71
2021/11/12 01:20:15;;;;;;;89.13;38.80;;;3.60;95.10;;;;;;5033799;28;20029;-71
2021/11/12 01:22:42;;;;;;;101.82;43.70;;;3.60;95.30;;;;;;5030700;28;20072;-72
2021/11/12 01:25:10;;;;;;;106.32;45.10;;;3.50;95.30;;;;;;5030662;28;20053;-72
2021/11/12 01:27:41;;;;;;;120.78;49.42;;;3.50;95.40;;;;;;5028407;28;20026;-72
2021/11/12 01:30:09;;;;;;;112.22;47.40;;;3.50;95.60;;;;;;5027865;28;20017;-70
2021/11/12 01:32:34;;;;;;;116.60;50.30;;;3.50;95.60;;;;;;5026165;28;20348;-71
2021/11/12 01:35:01;;;;;;;115.28;49.53;;;3.50;95.60;;;;;;5031614;28;20021;-71
2021/11/12 01:37:29;;;;;;;109.82;45.78;;;3.50;95.60;;;;;;5025560;28;20028;-71
2021/11/12 01:40:05;;;;;;;97.78;41.22;;;3.50;95.90;;;;;;5032937;28;20371;-72
2021/11/12 01:42:54;;;;;;;83.28;36.13;;;3.50;96.00;;;;;;5033416;28;20025;-74
2021/11/12 01:45:29;;;;;;;67.13;29.15;;;3.40;95.60;;;;;;5030699;28;20044;-73
2021/11/12 01:50:41;;;;;;;56.42;24.38;;;3.40;96.10;;;;;;5033958;28;20037;-73
2021/11/12 01:53:10;;;;;;;56.25;25.45;;;3.40;96.30;;;;;;5032440;28;20018;-72
2021/11/12 01:55:46;;;;;;;70.43;28.92;;;3.40;96.30;;;;;;5034609;28;20024;-72
2021/11/12 02:00:58;;;;;;;76.75;26.25;;;3.40;96.30;;;;;;5028818;28;20045;-72
2021/11/12 02:03:23;;;;;;;81.05;29.95;;;3.30;96.40;;;;;;5035501;28;20052;-71
2021/11/12 02:05:49;;;;;;;121.10;39.05;;;3.30;96.50;;;;;;5033351;28;20071;-71
2021/11/12 02:08:15;;;;;;;179.50;51.90;;;3.30;96.70;;;;;;5033338;28;20087;-72
2021/11/12 02:10:41;;;;;;;235.02;60.80;;;3.30;96.90;;;;;;5032003;28;20022;-72
2021/11/12 02:13:15;;;;;;;223.88;60.22;;;3.30;97.00;;;;;;5032392;28;20025;-71
2021/11/12 02:15:42;;;;;;;175.43;54.78;;;3.30;97.20;;;;;;5032980;28;20075;-71
2021/11/12 02:18:27;;;;;;;143.07;53.78;;;3.30;97.30;;;;;;5029164;28;20029;-71
2021/11/12 02:21:08;;;;;;;114.50;48.92;;;3.20;97.40;;;;;;5032042;28;20014;-71
2021/11/12 02:23:38;;;;;;;107.82;46.17;;;3.30;97.50;;;;;;5032327;28;20527;-71
2021/11/12 02:26:07;;;;;;;97.05;45.08;;;3.20;97.80;;;;;;5023303;28;20056;-72
2021/11/12 02:28:35;;;;;;;109.70;45.75;;;3.20;97.60;;;;;;5033105;28;20044;-72
2021/11/12 02:31:02;;;;;;;108.82;45.28;;;3.20;97.60;;;;;;5031896;28;20448;-72
2021/11/12 02:33:28;;;;;;;105.72;44.28;;;3.20;97.80;;;;;;5031810;28;20025;-71
2021/11/12 02:36:15;;;;;;;113.07;43.53;;;3.20;97.70;;;;;;5031049;28;20025;-70
2021/11/12 02:38:47;;;;;;;140.50;53.42;;;3.20;97.80;;;;;;5032801;28;20029;-71
2021/11/12 02:41:13;;;;;;;147.18;54.42;;;3.20;97.90;;;;;;5064951;28;20033;-70
2021/11/12 02:43:41;;;;;;;159.00;58.60;;;3.20;97.80;;;;;;5031858;28;20041;-70
2021/11/12 02:46:09;;;;;;;146.23;52.45;;;3.20;98.20;;;;;;5030966;28;20025;-71
2021/11/12 02:48:36;;;;;;;143.10;49.58;;;3.20;98.10;;;;;;5032570;28;20037;-70
2021/11/12 02:51:09;;;;;;;145.77;52.42;;;3.10;98.20;;;;;;5031620;28;20452;-71
2021/11/12 02:53:36;;;;;;;128.13;49.22;;;3.10;98.30;;;;;;5034532;28;20344;-73
2021/11/12 02:56:05;;;;;;;143.43;49.88;;;3.10;98.50;;;;;;5036915;28;20455;-71
2021/11/12 02:58:32;;;;;;;124.03;49.03;;;3.10;98.60;;;;;;5041692;28;20025;-71
2021/11/12 03:00:58;;;;;;;108.07;42.25;;;3.00;98.60;;;;;;5036748;28;20402;-71
2021/11/12 03:03:24;;;;;;;129.93;46.83;;;3.10;98.80;;;;;;5034919;28;20029;-71
2021/11/12 03:05:50;;;;;;;142.43;51.97;;;3.10;98.70;;;;;;5037104;28;20431;-71
2021/11/12 03:08:16;;;;;;;135.40;51.30;;;3.10;98.70;;;;;;5035647;28;20464;-71
2021/11/12 03:10:42;;;;;;;156.02;58.35;;;3.00;98.90;;;;;;5024440;28;20072;-71
2021/11/12 03:13:08;;;;;;;148.60;55.58;;;3.10;98.80;;;;;;5030550;28;20037;-73
2021/11/12 03:15:37;;;;;;;149.15;54.80;;;3.00;98.80;;;;;;5024601;28;20091;-72
2021/11/12 03:18:03;;;;;;;155.93;56.80;;;3.00;99.00;;;;;;5033498;28;20124;-72
2021/11/12 03:20:30;;;;;;;169.23;58.83;;;3.00;98.90;;;;;;5024379;28;20017;-72
2021/11/12 04:00:38;;;;;;;205.10;69.65;;;2.70;99.90;;;;;;5034393;28;20056;-71
2021/11/12 05:35:00;;;;;;;21.35;12.90;;;3.40;99.90;;;;;;5041468;28;20642;-68
2021/11/12 05:56:03;;;;;;;43.63;30.17;;;4.70;97.50;;;;;;5019231;28;20037;-68
2021/11/12 05:58:29;;;;;;;40.53;29.15;;;5.10;97.20;;;;;;5023094;28;20022;-69
2021/11/12 06:00:55;;;;;;;42.17;29.08;;;5.50;96.30;;;;;;5025401;28;20024;-68
2021/11/12 06:03:20;;;;;;;43.50;29.67;;;6.10;94.90;;;;;;5028214;28;20013;-69
2021/11/12 06:05:46;;;;;;;33.33;23.63;;;6.60;92.80;;;;;;5023209;28;20411;-69
2021/11/12 06:08:12;;;;;;;30.52;21.38;;;7.20;90.70;;;;;;5017711;28;20113;-70
2021/11/12 06:10:38;;;;;;;25.45;19.20;;;7.70;87.60;;;;;;5016094;28;20029;-68
2021/11/12 06:13:04;;;;;;;30.40;16.98;;;8.10;84.20;;;;;;5036096;28;20021;-68
2021/11/12 06:15:30;;;;;;;21.10;16.05;;;8.40;82.00;;;;;;5036563;28;20021;-68
2021/11/12 06:17:57;;;;;;;22.63;16.70;;;8.90;80.50;;;;;;5030186;28;20032;-68
2021/11/12 06:20:23;;;;;;;24.23;17.30;;;9.30;78.20;;;;;;5026510;28;20352;-69
2021/11/12 06:22:49;;;;;;;22.90;18.45;;;9.80;76.10;;;;;;5025849;28;20112;-69
2021/11/12 06:25:14;;;;;;;24.20;18.80;;;10.20;74.00;;;;;;5023365;28;20046;-70
2021/11/12 06:27:40;;;;;;;28.88;21.75;;;10.60;72.60;;;;;;5028214;28;20056;-70
2021/11/12 06:30:08;;;;;;;31.25;22.33;;;11.10;70.80;;;;;;5023666;28;20037;-71
2021/11/12 06:32:33;;;;;;;23.60;18.40;;;11.40;69.40;;;;;;5037001;28;20021;-71
2021/11/12 06:35:00;;;;;;;25.70;17.38;;;11.70;68.30;;;;;;5037177;28;20029;-71
2021/11/12 06:37:26;;;;;;;17.90;14.30;;;12.10;66.90;;;;;;5032171;28;20029;-70
2021/11/12 06:39:51;;;;;;;19.08;13.95;;;12.60;65.70;;;;;;5022891;28;20025;-69
2021/11/12 06:42:23;;;;;;;22.88;15.00;;;13.00;64.10;;;;;;5028296;28;20040;-69
2021/11/12 06:50:12;;;;;;;23.45;15.55;;;13.60;61.50;;;;;;5031886;28;20090;-70
2021/11/12 06:52:41;;;;;;;21.58;15.07;;;14.10;60.30;;;;;;5030538;28;20045;-69
2021/11/12 06:55:09;;;;;;;20.67;14.45;;;14.60;58.70;;;;;;5032585;28;20033;-72
2021/11/12 06:57:35;;;;;;;20.42;13.75;;;14.70;57.60;;;;;;5030283;28;20074;-73
2021/11/12 07:00:02;;;;;;;19.75;13.18;;;14.70;57.40;;;;;;5030981;28;20033;-70
2021/11/12 07:02:29;;;;;;;17.80;12.18;;;14.80;57.10;;;;;;5029029;28;20032;-71
2021/11/12 07:04:55;;;;;;;16.85;12.43;;;14.80;56.30;;;;;;5032038;28;20028;-69
2021/11/12 07:07:21;;;;;;;22.73;13.15;;;14.80;56.40;;;;;;5020741;28;20026;-72
2021/11/12 07:09:47;;;;;;;21.23;13.68;;;15.00;56.20;;;;;;5023443;28;20570;-71
2021/11/12 07:12:14;;;;;;;22.38;13.10;;;15.30;55.50;;;;;;5028897;28;20079;-67
2021/11/12 07:14:42;;;;;;;24.90;13.52;;;15.50;54.70;;;;;;5021325;28;20021;-69
2021/11/12 07:17:08;;;;;;;22.48;14.48;;;15.80;54.10;;;;;;5021626;28;20483;-70
2021/11/12 07:19:34;;;;;;;22.80;14.57;;;15.90;53.90;;;;;;5017561;28;20425;-71
2021/11/12 07:22:00;;;;;;;20.65;13.23;;;16.10;53.50;;;;;;5025546;28;20061;-68
2021/11/12 07:24:27;;;;;;;20.98;14.25;;;16.30;53.20;;;;;;5029599;28;20107;-69
2021/11/12 07:26:57;;;;;;;23.10;16.55;;;16.60;52.00;;;;;;5027101;28;20017;-69
2021/11/12 07:29:28;;;;;;;23.13;16.80;;;16.90;51.10;;;;;;5030192;28;20033;-68
2021/11/12 07:31:58;;;;;;;19.55;15.55;;;16.80;50.90;;;;;;5028704;28;20483;-70
2021/11/12 07:34:26;;;;;;;22.15;14.45;;;17.00;50.60;;;;;;5030213;28;20018;-66
2021/11/12 07:36:58;;;;;;;18.95;13.88;;;16.90;50.10;;;;;;5025542;28;20379;-71
2021/11/12 07:44:38;;;;;;;17.30;12.25;;;17.90;49.10;;;;;;5024683;28;20041;-69
2021/11/12 07:47:14;;;;;;;18.45;12.18;;;18.00;48.80;;;;;;5032029;28;20371;-70
2021/11/12 07:49:41;;;;;;;19.17;11.82;;;18.20;48.30;;;;;;5022283;28;20104;-75
2021/11/12 07:52:07;;;;;;;16.63;11.77;;;18.30;48.00;;;;;;5033995;28;20031;-76
2021/11/12 07:54:33;;;;;;;20.35;12.20;;;18.50;47.50;;;;;;5034180;28;20105;-77
2021/11/12 07:57:00;;;;;;;21.05;12.60;;;18.70;47.40;;;;;;5033243;28;20212;-76
2021/11/12 07:59:26;;;;;;;16.55;12.07;;;18.90;47.60;;;;;;5032848;28;20514;-77
2021/11/12 08:01:52;;;;;;;18.88;12.88;;;19.00;46.40;;;;;;5034573;28;20041;-76
2021/11/12 08:04:19;;;;;;;18.85;12.70;;;19.30;45.90;;;;;;5031777;28;20029;-77
2021/11/12 08:06:46;;;;;;;18.60;12.88;;;19.30;45.40;;;;;;5034066;28;20030;-76
2021/11/12 08:09:15;;;;;;;21.77;14.00;;;19.10;45.90;;;;;;5035053;28;20029;-77
2021/11/12 08:14:12;;;;;;;22.73;15.30;;;19.60;45.80;;;;;;5034587;28;20108;-71
2021/11/12 08:19:41;;;;;;;20.45;12.63;;;20.00;44.80;;;;;;5033090;28;20057;-72
2021/11/12 08:29:49;;;;;;;18.83;12.98;;;20.20;44.20;;;;;;5031168;28;20687;-70
2021/11/12 08:37:21;;;;;;;22.15;13.68;;;20.30;43.30;;;;;;5029814;28;20030;-71
2021/11/12 08:42:30;;;;;;;19.27;13.80;;;20.80;43.60;;;;;;5030343;28;20030;-70
2021/11/12 08:45:05;;;;;;;21.50;14.35;;;21.00;43.20;;;;;;5033315;28;20034;-69
2021/11/12 08:47:38;;;;;;;22.45;14.23;;;20.90;42.80;;;;;;5031355;28;20021;-70
2021/11/12 08:50:06;;;;;;;23.45;16.02;;;20.80;43.20;;;;;;5030466;28;20021;-69
2021/11/12 08:52:31;;;;;;;27.08;17.23;;;20.90;43.30;;;;;;5028672;28;20025;-69
2021/11/12 08:55:02;;;;;;;22.30;15.77;;;21.20;43.10;;;;;;5033289;28;20443;-71
2021/11/12 08:57:28;;;;;;;18.63;12.90;;;21.50;42.20;;;;;;5023679;28;20025;-72
2021/11/12 08:59:54;;;;;;;18.90;12.32;;;21.70;41.70;;;;;;5017706;28;20029;-70
2021/11/12 09:02:25;;;;;;;17.00;12.45;;;21.60;41.60;;;;;;5018584;28;20029;-69
2021/11/12 09:04:52;;;;;;;19.02;13.05;;;21.70;41.60;;;;;;5015611;28;20025;-70
2021/11/12 09:07:18;;;;;;;17.92;12.52;;;21.80;41.50;;;;;;5028928;28;20491;-69
2021/11/12 09:09:44;;;;;;;19.92;12.80;;;22.30;41.10;;;;;;5013455;28;20022;-70
2021/11/12 09:12:13;;;;;;;22.65;14.60;;;22.60;40.70;;;;;;5014891;28;20034;-70
2021/11/12 09:14:44;;;;;;;20.77;14.85;;;22.60;40.40;;;;;;5017985;28;20072;-70
2021/11/12 09:17:10;;;;;;;21.50;15.50;;;22.50;40.10;;;;;;5038558;28;20036;-70
2021/11/12 09:19:45;;;;;;;25.23;16.90;;;22.50;40.40;;;;;;5027852;28;20443;-69
2021/11/12 09:22:16;;;;;;;20.60;14.73;;;22.60;40.40;;;;;;5032245;28;20460;-72
2021/11/12 09:24:45;;;;;;;21.63;15.15;;;22.60;40.20;;;;;;5032173;28;20104;-71
2021/11/12 09:27:12;;;;;;;19.95;13.73;;;22.50;40.50;;;;;;5031638;28;20108;-73
2021/11/12 09:29:38;;;;;;;20.40;14.18;;;22.50;40.10;;;;;;5031580;28;20030;-73
2021/11/12 09:32:05;;;;;;;22.20;15.85;;;22.50;40.20;;;;;;5032343;28;20029;-77
2021/11/12 09:34:51;;;;;;;19.85;13.95;;;22.60;41.10;;;;;;5030139;28;20020;-78
2021/11/12 09:37:22;;;;;;;18.35;13.88;;;22.60;40.50;;;;;;5034117;28;20017;-78
2021/11/12 09:39:57;;;;;;;21.67;15.15;;;22.90;40.30;;;;;;5023387;28;20022;-74
2021/11/12 09:42:28;;;;;;;20.42;14.15;;;23.30;39.60;;;;;;5011808;28;20048;-73
2021/11/12 09:45:01;;;;;;;20.88;14.68;;;23.50;39.30;;;;;;5019765;28;20042;-73
2021/11/12 09:47:28;;;;;;;19.73;14.43;;;23.50;39.20;;;;;;5019527;28;20565;-73
2021/11/12 09:49:58;;;;;;;19.60;14.50;;;23.20;39.40;;;;;;5031605;28;20028;-74
2021/11/12 09:52:26;;;;;;;18.23;13.88;;;23.20;39.30;;;;;;5031384;28;20472;-74
2021/11/12 09:54:52;;;;;;;20.58;15.02;;;23.30;39.10;;;;;;5033756;28;20014;-73
2021/11/12 09:57:19;;;;;;;22.52;15.32;;;23.40;39.30;;;;;;5031863;28;20013;-74
2021/11/12 09:59:56;;;;;;;23.58;16.48;;;23.50;39.90;;;;;;5024712;28;20030;-73
2021/11/12 10:02:22;;;;;;;20.48;15.27;;;23.50;39.20;;;;;;5028001;28;20020;-75
2021/11/12 10:04:48;;;;;;;20.55;14.68;;;23.30;39.40;;;;;;5032764;28;20029;-74
2021/11/12 10:07:15;;;;;;;21.65;16.00;;;23.30;39.40;;;;;;5033318;28;20470;-74
2021/11/12 10:09:44;;;;;;;28.02;19.95;;;23.40;39.30;;;;;;5032894;28;20013;-75
2021/11/12 10:12:11;;;;;;;20.50;15.75;;;23.30;39.10;;;;;;5040237;28;20032;-74
2021/11/12 10:15:07;;;;;;;22.58;16.60;;;23.40;39.20;;;;;;5024307;28;20022;-77
2021/11/12 10:17:41;;;;;;;24.55;16.75;;;23.60;39.10;;;;;;5051776;28;20037;-74
2021/11/12 10:24:30;;;;;;;;;;;;;;;;;;;;;
2021/11/12 10:27:10;;;;;;;24.45;17.40;;;23.40;39.70;;;;;;4989200;28;20098;-73
2021/11/12 10:29:46;;;;;;;21.75;17.23;;;23.60;39.60;;;;;;5028388;28;20087;-74
2021/11/12 10:32:33;;;;;;;23.30;17.67;;;23.90;39.20;;;;;;5032792;28;20024;-74
2021/11/12 10:35:03;;;;;;;25.20;18.25;;;23.90;38.90;;;;;;5031882;28;20306;-75
2021/11/12 10:37:33;;;;;;;24.15;16.85;;;23.80;39.00;;;;;;5031270;28;20094;-73
2021/11/12 10:40:06;;;;;;;21.88;16.98;;;23.70;38.90;;;;;;5030131;28;20366;-73
2021/11/12 10:42:38;;;;;;;21.58;16.15;;;23.50;39.20;;;;;;5020633;28;20028;-72
2021/11/12 10:45:07;;;;;;;24.13;17.38;;;23.20;39.10;;;;;;5029827;28;20044;-74
2021/11/12 10:47:35;;;;;;;22.67;16.15;;;23.00;39.20;;;;;;5031306;28;20091;-73
2021/11/12 10:50:00;;;;;;;24.90;17.05;;;22.90;39.40;;;;;;5028917;28;20036;-74
2021/11/12 10:52:28;;;;;;;26.85;16.92;;;23.10;39.20;;;;;;5030508;28;20116;-74
2021/11/12 10:55:05;;;;;;;22.85;16.42;;;22.90;39.30;;;;;;5031445;28;20029;-74
2021/11/12 10:57:41;;;;;;;24.17;17.08;;;22.90;39.40;;;;;;5031659;28;20032;-74
2021/11/12 11:00:19;;;;;;;21.33;15.65;;;23.00;39.50;;;;;;5031731;28;20021;-72
2021/11/12 11:02:47;;;;;;;20.48;14.93;;;23.10;39.20;;;;;;5030678;28;20028;-72
2021/11/12 11:05:14;;;;;;;21.83;14.80;;;23.00;38.90;;;;;;5032031;28;20032;-73
2021/11/12 11:07:41;;;;;;;20.35;14.85;;;23.00;38.50;;;;;;5038950;28;20022;-75
2021/11/12 11:10:28;;;;;;;23.08;16.13;;;22.80;38.60;;;;;;5036011;28;20045;-75
2021/11/12 11:13:15;;;;;;;21.52;14.82;;;22.70;39.00;;;;;;5022040;28;20017;-74
2021/11/12 11:15:46;;;;;;;21.48;14.73;;;22.70;38.80;;;;;;5030105;28;20017;-73
2021/11/12 11:18:29;;;;;;;22.98;16.27;;;22.50;38.80;;;;;;5035461;28;20032;-74
2021/11/12 11:21:14;;;;;;;20.60;15.55;;;22.40;38.80;;;;;;5035264;28;20022;-74
2021/11/12 11:23:47;;;;;;;20.50;15.85;;;22.40;39.20;;;;;;5036643;28;20104;-74
2021/11/12 11:26:16;;;;;;;21.65;15.95;;;22.10;39.30;;;;;;5048474;28;20100;-74
2021/11/12 11:28:42;;;;;;;20.45;15.07;;;21.90;39.60;;;;;;5027158;28;20037;-74
2021/11/12 11:31:11;;;;;;;22.55;16.40;;;22.00;39.80;;;;;;5034858;28;20033;-74
2021/11/12 11:33:39;;;;;;;19.73;15.32;;;22.00;39.60;;;;;;5034418;28;20021;-75
2021/11/12 11:36:06;;;;;;;20.85;16.10;;;21.90;40.00;;;;;;5028306;28;20475;-75
2021/11/12 11:38:34;;;;;;;20.50;15.75;;;21.80;39.90;;;;;;5033471;28;20029;-75
2021/11/12 11:41:02;;;;;;;24.23;16.20;;;21.70;39.90;;;;;;5028268;28;20037;-74
2021/11/12 11:43:30;;;;;;;24.75;16.85;;;21.70;40.10;;;;;;5033714;28;20065;-74
2021/11/12 11:45:59;;;;;;;24.02;16.27;;;21.60;40.20;;;;;;5029964;28;20044;-75
2021/11/12 11:48:25;;;;;;;23.50;16.60;;;21.60;40.40;;;;;;5023391;28;20021;-74
2021/11/12 11:50:54;;;;;;;23.50;16.77;;;21.50;40.70;;;;;;5017418;28;20444;-76
2021/11/12 11:53:41;;;;;;;23.08;17.35;;;21.40;40.70;;;;;;5019289;28;20025;-74
2021/11/12 11:56:14;;;;;;;24.75;17.30;;;21.50;40.60;;;;;;5029693;28;20371;-73
2021/11/12 11:58:47;;;;;;;23.35;16.92;;;21.50;40.80;;;;;;5032798;28;20025;-73
2021/11/12 12:01:34;;;;;;;26.20;17.48;;;21.50;40.80;;;;;;5023503;28;20037;-73
2021/11/12 12:04:07;;;;;;;25.60;17.65;;;21.30;40.90;;;;;;5041356;28;20113;-74
2021/11/12 12:06:33;;;;;;;23.65;16.98;;;20.90;41.40;;;;;;5032151;28;20463;-72
2021/11/12 12:09:11;;;;;;;26.38;18.02;;;20.70;41.90;;;;;;5030823;28;20095;-73
2021/11/12 12:11:50;;;;;;;25.38;18.10;;;20.70;42.00;;;;;;5027011;28;20033;-75
2021/11/12 12:14:19;;;;;;;26.65;19.13;;;20.70;42.00;;;;;;5033944;28;20029;-74
2021/11/12 12:16:59;;;;;;;25.83;18.88;;;20.40;42.40;;;;;;5036061;28;20018;-75
2021/11/12 12:20:02;;;;;;;27.17;18.13;;;20.10;42.80;;;;;;5035448;28;20030;-74
2021/11/12 13:25:56;;;;;;;28.67;19.73;;;13.30;55.80;;;;;;5034310;28;20017;-74
2021/11/12 13:28:24;;;;;;;30.23;19.90;;;13.20;56.00;;;;;;5033291;28;20033;-74
2021/11/12 13:31:01;;;;;;;31.67;20.95;;;13.10;56.30;;;;;;5032342;28;20379;-74
2021/11/12 13:33:48;;;;;;;32.05;20.55;;;12.90;56.80;;;;;;5032803;28;20048;-74
2021/11/12 13:36:20;;;;;;;30.30;21.27;;;12.90;57.30;;;;;;5034341;28;20016;-74
2021/11/12 13:38:49;;;;;;;32.65;20.77;;;12.70;57.30;;;;;;5020994;28;20502;-74
2021/11/12 13:41:16;;;;;;;32.03;21.50;;;12.60;57.90;;;;;;5031555;28;20028;-73
2021/11/12 13:43:44;;;;;;;26.73;20.13;;;12.60;58.30;;;;;;5032121;28;20041;-73
2021/11/12 13:46:11;;;;;;;35.42;21.48;;;12.50;58.80;;;;;;5034176;28;20036;-73
2021/11/12 13:48:46;;;;;;;29.52;20.38;;;12.40;59.20;;;;;;5033632;28;20061;-75
2021/11/12 13:51:12;;;;;;;33.03;20.60;;;12.40;59.80;;;;;;5034211;28;20100;-73
2021/11/12 13:53:37;;;;;;;30.65;21.40;;;12.30;59.90;;;;;;5035412;28;20056;-74
2021/11/12 13:56:08;;;;;;;30.73;20.85;;;12.20;60.40;;;;;;5038237;28;20022;-74
2021/11/12 13:58:34;;;;;;;30.80;21.13;;;12.10;60.90;;;;;;5040332;28;20057;-74
2021/11/12 14:01:00;;;;;;;31.83;21.58;;;12.10;61.10;;;;;;5032841;28;20060;-73
2021/11/12 14:03:37;;;;;;;30.08;22.10;;;12.10;61.20;;;;;;5032319;28;20021;-75
2021/11/12 14:06:11;;;;;;;32.90;23.55;;;12.10;61.50;;;;;;5032357;28;20029;-74
2021/11/12 14:08:43;;;;;;;39.63;23.77;;;12.10;61.40;;;;;;5032174;28;20053;-75
2021/11/12 14:11:25;;;;;;;37.53;24.83;;;12.00;61.50;;;;;;5033438;28;20060;-74
2021/11/12 14:13:52;;;;;;;35.13;25.73;;;12.00;61.70;;;;;;5032159;28;20030;-73
2021/11/12 14:16:35;;;;;;;39.58;26.35;;;11.90;61.60;;;;;;5032827;28;20024;-73
2021/11/12 14:22:05;;;;;;;43.33;27.83;;;11.70;62.50;;;;;;5033610;28;20521;-74
2021/11/12 14:27:14;;;;;;;42.60;27.80;;;11.60;63.50;;;;;;5032939;28;20033;-74
2021/11/12 14:38:13;;;;;;;43.63;28.08;;;11.60;63.70;;;;;;5032870;28;20029;-73
2021/11/12 14:46:35;;;;;;;43.03;28.83;;;11.80;64.20;;;;;;5032957;28;20108;-73
2021/11/12 14:52:02;;;;;;;47.10;32.42;;;11.80;64.10;;;;;;5047662;28;20029;-74
2021/11/12 14:54:35;;;;;;;48.15;33.00;;;11.90;64.20;;;;;;5043819;28;20081;-74
2021/11/12 14:57:04;;;;;;;50.40;33.00;;;11.80;64.20;;;;;;5038798;28;20075;-73
2021/11/12 14:59:33;;;;;;;49.38;32.20;;;11.80;64.30;;;;;;5040378;28;20056;-74
2021/11/12 15:02:01;;;;;;;51.55;32.42;;;11.80;64.50;;;;;;5039256;28;20017;-74
2021/11/12 15:04:27;;;;;;;47.90;30.65;;;11.80;64.90;;;;;;5039624;28;20018;-75
2021/11/12 15:06:54;;;;;;;48.20;31.48;;;11.70;65.10;;;;;;5037920;28;20029;-73
2021/11/12 15:09:30;;;;;;;52.30;33.78;;;11.70;65.40;;;;;;5038478;28;20033;-73
2021/11/12 15:12:07;;;;;;;49.50;33.28;;;11.60;65.70;;;;;;5038284;28;20021;-74
2021/11/12 15:14:46;;;;;;;52.17;35.33;;;11.60;65.80;;;;;;5040241;28;20075;-73
2021/11/12 15:17:15;;;;;;;51.03;33.65;;;11.60;66.00;;;;;;5039861;28;20058;-75
2021/11/12 15:19:44;;;;;;;50.42;33.55;;;11.60;66.10;;;;;;5038298;28;20044;-73
2021/11/12 15:32:14;;;;;;;47.45;30.17;;;11.60;66.60;;;;;;5040063;28;20029;-73
2021/11/12 15:34:46;;;;;;;44.67;29.20;;;11.60;66.60;;;;;;5037631;28;20094;-75
2021/11/12 15:37:22;;;;;;;42.00;26.80;;;11.60;66.70;;;;;;5038342;28;20021;-74
2021/11/12 15:44:55;;;;;;;40.13;26.90;;;11.60;66.90;;;;;;5039509;28;20056;-73
2021/11/12 15:47:23;;;;;;;43.20;28.48;;;11.60;67.30;;;;;;5043604;28;20537;-74
2021/11/12 15:49:58;;;;;;;40.72;28.15;;;11.50;67.20;;;;;;5043412;28;20021;-76
2021/11/12 15:52:29;;;;;;;41.20;27.55;;;11.50;67.40;;;;;;5039747;28;20017;-73
2021/11/12 15:55:02;;;;;;;40.10;27.52;;;11.50;67.50;;;;;;5039381;28;20025;-77
2021/11/12 15:58:04;;;;;;;38.05;26.35;;;11.50;67.60;;;;;;5038006;28;20029;-74
2021/11/12 16:00:26;;;;;;;40.92;27.77;;;11.50;67.90;;;;;;5038453;28;20029;-75
2021/11/12 16:11:08;;;;;;;41.22;27.85;;;11.40;67.90;;;;;;5035576;28;20474;-75
2021/11/12 16:19:03;;;;;;;42.28;28.25;;;11.50;68.30;;;;;;5025193;28;20092;-74
2021/11/12 16:26:47;;;;;;;46.35;33.35;;;11.40;68.20;;;;;;5035083;28;20026;-77
2021/11/12 16:31:54;;;;;;;47.38;32.33;;;11.20;68.60;;;;;;5035450;28;20021;-73
2021/11/12 16:34:22;;;;;;;50.58;32.20;;;11.10;68.90;;;;;;5033879;28;20505;-74
2021/11/12 16:37:07;;;;;;;50.13;33.63;;;11.00;69.20;;;;;;5034315;28;20049;-75
2021/11/12 16:39:42;;;;;;;53.60;34.38;;;10.90;69.60;;;;;;5035489;28;20026;-74
2021/11/12 16:45:01;;;;;;;59.45;36.38;;;10.60;70.50;;;;;;5043702;28;20072;-75
2021/11/12 16:52:53;;;;;;;53.25;34.70;;;10.20;71.90;;;;;;5036178;28;20100;-74
2021/11/12 16:56:38;;;;;;;59.78;36.03;;;10.10;72.40;;;;;;5034238;28;20029;-74
2021/11/12 17:18:40;;;;;;;50.10;31.88;;;9.40;75.30;;;;;;5035322;28;20029;-74
2021/11/12 17:48:46;;;;;;;59.35;38.35;;;9.00;78.40;;;;;;5029113;28;20029;-75
2021/11/12 18:01:37;;;;;;;76.18;50.90;;;8.90;78.90;;;;;;5034252;28;20026;-73
2021/11/12 18:02:08;;;;;;;72.50;46.53;;;8.80;79.50;;;;;;5034263;28;20068;-75
2021/11/12 21:47:17;;;;;;;24.95;17.10;;;8.30;77.30;;;;;;5033744;28;20029;-75
2021/11/12 21:49:43;;;;;;;26.77;18.13;;;8.30;77.10;;;;;;5033704;28;20376;-75
2021/11/12 21:52:09;;;;;;;25.02;17.08;;;8.30;76.90;;;;;;5033191;28;20025;-75
2021/11/12 21:54:35;;;;;;;24.80;16.85;;;8.30;76.50;;;;;;5032418;28;20112;-76
2021/11/12 21:57:01;;;;;;;25.00;17.20;;;8.30;76.30;;;;;;5031637;28;20471;-75
2021/11/12 21:59:27;;;;;;;24.20;16.13;;;8.30;76.30;;;;;;5032882;28;20044;-75
2021/11/12 22:01:54;;;;;;;26.48;17.33;;;8.30;76.20;;;;;;5031551;28;20029;-76
2021/11/12 22:04:20;;;;;;;23.77;16.55;;;8.30;76.10;;;;;;5031967;28;20021;-75
2021/11/12 22:06:46;;;;;;;26.73;17.42;;;8.30;75.90;;;;;;5034050;28;20017;-76
2021/11/12 22:09:12;;;;;;;23.88;16.42;;;8.30;76.00;;;;;;5032752;28;20375;-75
2021/11/12 22:11:38;;;;;;;24.75;17.15;;;8.20;76.00;;;;;;5032510;28;20021;-76
2021/11/12 22:14:06;;;;;;;24.77;16.67;;;8.30;76.10;;;;;;5037376;28;20018;-75
2021/11/12 22:16:33;;;;;;;26.63;17.45;;;8.30;76.20;;;;;;5042780;28;20024;-75
2021/11/12 22:18:59;;;;;;;27.08;17.25;;;8.30;76.30;;;;;;5034615;28;20029;-76
2021/11/12 22:21:25;;;;;;;26.10;17.27;;;8.30;76.30;;;;;;5033235;28;20370;-75
2021/11/12 22:23:51;;;;;;;25.95;17.25;;;8.30;76.30;;;;;;5031633;28;20112;-76
2021/11/12 22:26:20;;;;;;;24.30;16.13;;;8.30;76.10;;;;;;5031932;28;20108;-76
2021/11/12 22:28:47;;;;;;;23.33;16.98;;;8.30;75.90;;;;;;5031352;28;20029;-76
2021/11/12 22:31:13;;;;;;;25.63;16.27;;;8.30;75.70;;;;;;5031366;28;20021;-76
2021/11/12 22:33:39;;;;;;;24.23;15.77;;;8.30;75.60;;;;;;5030963;28;20032;-76
2021/11/12 22:36:05;;;;;;;25.33;15.68;;;8.30;75.40;;;;;;5033515;28;20048;-76
2021/11/12 22:38:32;;;;;;;22.63;15.02;;;8.30;75.20;;;;;;5029673;28;20128;-76
2021/11/12 22:40:58;;;;;;;21.50;14.13;;;8.30;75.00;;;;;;5030867;28;20057;-76
2021/11/12 22:43:25;;;;;;;21.52;13.98;;;8.30;74.90;;;;;;5032455;28;20076;-75
2021/11/12 22:45:51;;;;;;;21.13;14.77;;;8.20;74.60;;;;;;5031355;28;20041;-75
2021/11/12 22:48:17;;;;;;;20.48;14.00;;;8.20;74.60;;;;;;5031902;28;20029;-76
2021/11/12 22:50:43;;;;;;;22.17;14.82;;;8.20;74.50;;;;;;5033146;28;20439;-76
2021/11/12 22:53:09;;;;;;;21.65;14.18;;;8.20;74.40;;;;;;5033221;28;20052;-76
2021/11/12 22:55:35;;;;;;;19.67;13.43;;;8.20;74.40;;;;;;5032274;28;20436;-76
2021/11/12 22:58:00;;;;;;;22.80;14.60;;;8.20;74.20;;;;;;5031204;28;20044;-76
2021/11/12 23:00:32;;;;;;;19.92;13.75;;;8.10;74.20;;;;;;5032076;28;20375;-76
2021/11/12 23:02:58;;;;;;;20.90;14.55;;;8.10;74.20;;;;;;5032243;28;20494;-76
2021/11/12 23:05:25;;;;;;;23.10;15.00;;;8.10;74.10;;;;;;5031417;28;20056;-76
2021/11/12 23:07:51;;;;;;;20.60;13.32;;;8.10;73.90;;;;;;5031747;28;20478;-76
2021/11/12 23:10:18;;;;;;;21.60;14.32;;;8.10;74.00;;;;;;5039447;28;20029;-76